Time;durP1;ratioP1;P1;durP2;ratioP2;P2;SDS_P1;SDS_P2;PMS_P1;PMS_P2;Temp;Humidity;BMP_temperature;BMP_pressure;BME280_temperature;BME280_humidity;BME280_pressure;Samples;Min_cycle;Max_cycle;Signal;HPM_P1;HPM_P2
2021/10/29 00:00:58;;;;;;;36.58;23.80;;;7.60;99.90;;;;;;4126358;28;20450;-76
2021/10/29 00:02:59;;;;;;;35.10;23.85;;;7.70;99.90;;;;;;4129416;28;20030;-76
2021/10/29 00:04:59;;;;;;;39.10;24.65;;;7.70;99.90;;;;;;4121501;28;20041;-76
2021/10/29 00:07:00;;;;;;;35.05;25.30;;;7.80;99.90;;;;;;4123294;28;20042;-76
2021/10/29 00:09:02;;;;;;;39.85;24.20;;;7.90;99.90;;;;;;4125549;28;20050;-76
2021/10/29 00:11:03;;;;;;;36.78;23.10;;;8.00;99.90;;;;;;4129929;28;20049;-75
2021/10/29 00:13:04;;;;;;;35.10;22.23;;;8.10;99.90;;;;;;4127977;28;20026;-76
2021/10/29 00:15:05;;;;;;;36.75;22.48;;;8.20;99.90;;;;;;4126789;28;20553;-76
2021/10/29 00:17:06;;;;;;;33.47;22.67;;;8.30;99.90;;;;;;4130260;28;20081;-76
2021/10/29 00:19:06;;;;;;;32.45;21.73;;;8.40;99.90;;;;;;4118386;28;20431;-75
2021/10/29 00:21:07;;;;;;;30.23;20.95;;;8.40;99.90;;;;;;4131533;28;20081;-75
2021/10/29 00:23:08;;;;;;;32.22;23.10;;;8.40;99.90;;;;;;4129903;28;20031;-75
2021/10/29 00:25:09;;;;;;;32.63;21.25;;;8.40;99.90;;;;;;4132116;28;20057;-75
2021/10/29 00:27:10;;;;;;;32.33;21.95;;;8.50;99.90;;;;;;4130612;28;20125;-75
2021/10/29 00:29:11;;;;;;;33.42;22.33;;;8.60;99.90;;;;;;4129937;28;20559;-75
2021/10/29 00:31:11;;;;;;;32.53;22.35;;;8.50;99.90;;;;;;4130057;28;20061;-75
2021/10/29 00:33:15;;;;;;;33.83;21.05;;;8.60;99.90;;;;;;4131350;28;20038;-75
2021/10/29 00:35:16;;;;;;;31.05;21.25;;;8.60;99.90;;;;;;4126290;28;20490;-75
2021/10/29 00:37:17;;;;;;;30.23;21.58;;;8.60;99.90;;;;;;4129646;28;20045;-75
2021/10/29 00:39:19;;;;;;;30.45;21.23;;;8.50;99.90;;;;;;4127197;28;20031;-75
2021/10/29 00:41:20;;;;;;;31.20;21.58;;;8.50;99.90;;;;;;4125067;28;20023;-75
2021/10/29 00:43:21;;;;;;;32.60;22.10;;;8.40;99.90;;;;;;4121678;28;20126;-75
2021/10/29 00:45:21;;;;;;;34.58;22.08;;;8.30;99.90;;;;;;4127115;28;20061;-75
2021/10/29 00:47:22;;;;;;;31.30;22.55;;;8.20;99.90;;;;;;4135865;28;20401;-75
2021/10/29 00:49:23;;;;;;;30.77;21.48;;;8.20;99.90;;;;;;4128871;28;20038;-75
2021/10/29 00:51:24;;;;;;;52.40;23.90;;;8.20;99.90;;;;;;4130040;28;20046;-75
2021/10/29 00:53:26;;;;;;;39.90;24.23;;;8.10;99.90;;;;;;4127715;28;20031;-75
2021/10/29 00:55:27;;;;;;;33.28;22.30;;;8.10;99.90;;;;;;4126595;28;20611;-75
2021/10/29 00:57:28;;;;;;;35.60;22.25;;;8.10;99.90;;;;;;4120738;28;20050;-75
2021/10/29 00:59:28;;;;;;;30.40;21.85;;;8.10;99.90;;;;;;4124934;28;20038;-75
2021/10/29 01:01:29;;;;;;;32.65;21.88;;;8.00;99.90;;;;;;4130623;28;20542;-75
2021/10/29 01:03:31;;;;;;;35.08;22.77;;;7.90;99.90;;;;;;4129858;28;20482;-75
2021/10/29 01:05:32;;;;;;;39.67;24.92;;;7.90;99.90;;;;;;4118927;28;20084;-75
2021/10/29 01:07:32;;;;;;;39.08;24.05;;;7.90;99.90;;;;;;4128114;28;20069;-75
2021/10/29 01:09:34;;;;;;;36.90;23.42;;;7.80;99.90;;;;;;4129796;28;20045;-75
2021/10/29 01:11:34;;;;;;;38.58;23.65;;;7.90;99.90;;;;;;4130180;28;20038;-75
2021/10/29 01:13:35;;;;;;;35.67;25.10;;;7.90;99.90;;;;;;4130387;28;20053;-75
2021/10/29 01:15:36;;;;;;;35.13;22.92;;;7.80;99.90;;;;;;4129348;28;20501;-75
2021/10/29 01:17:37;;;;;;;35.28;22.88;;;7.80;99.90;;;;;;4117351;28;20038;-76
2021/10/29 01:19:40;;;;;;;41.70;25.17;;;7.70;99.90;;;;;;4129241;28;20118;-75
2021/10/29 01:21:40;;;;;;;36.53;22.38;;;7.80;99.90;;;;;;4118073;28;20081;-75
2021/10/29 01:23:41;;;;;;;40.08;25.45;;;7.80;99.90;;;;;;4127781;28;20748;-75
2021/10/29 01:25:42;;;;;;;37.35;23.85;;;7.70;99.90;;;;;;4127331;28;20037;-75
2021/10/29 01:27:42;;;;;;;34.58;21.67;;;7.70;99.90;;;;;;4129457;28;20049;-75
2021/10/29 01:29:45;;;;;;;36.28;22.73;;;7.70;99.90;;;;;;4130066;28;20117;-75
2021/10/29 01:31:46;;;;;;;36.38;22.00;;;7.70;99.90;;;;;;4124939;28;20463;-75
2021/10/29 01:33:47;;;;;;;34.58;23.83;;;7.80;99.90;;;;;;4144348;28;20088;-75
2021/10/29 01:35:47;;;;;;;34.10;22.17;;;7.70;99.90;;;;;;4129154;28;20073;-75
2021/10/29 01:37:48;;;;;;;33.83;22.10;;;7.80;99.90;;;;;;4128641;28;20120;-75
2021/10/29 01:39:49;;;;;;;30.58;23.38;;;7.80;99.90;;;;;;4128063;28;20360;-75
2021/10/29 01:41:49;;;;;;;37.08;23.35;;;7.90;99.90;;;;;;4123853;28;20434;-75
2021/10/29 01:43:50;;;;;;;34.72;23.05;;;7.90;99.90;;;;;;4128406;28;20118;-75
2021/10/29 01:45:51;;;;;;;31.67;22.30;;;7.90;99.90;;;;;;4128197;28;20038;-74
2021/10/29 01:47:52;;;;;;;37.30;21.67;;;7.90;99.90;;;;;;4128330;28;20038;-75
2021/10/29 01:49:53;;;;;;;29.65;19.60;;;8.00;99.90;;;;;;4130802;28;20030;-76
2021/10/29 01:51:54;;;;;;;31.27;21.45;;;8.10;99.90;;;;;;4127573;28;20054;-75
2021/10/29 01:53:55;;;;;;;30.10;21.52;;;8.10;99.90;;;;;;4128754;28;20105;-75
2021/10/29 01:55:56;;;;;;;31.38;20.23;;;8.10;99.90;;;;;;4128549;28;20047;-75
2021/10/29 01:57:57;;;;;;;34.97;21.20;;;8.10;99.90;;;;;;4126655;28;20066;-75
2021/10/29 01:59:57;;;;;;;32.63;21.33;;;8.20;99.90;;;;;;4119976;28;20035;-75
2021/10/29 02:01:58;;;;;;;29.42;20.77;;;8.20;99.90;;;;;;4128777;28;20367;-75
2021/10/29 02:03:58;;;;;;;28.20;19.83;;;8.20;99.90;;;;;;4129698;28;20295;-75
2021/10/29 02:05:59;;;;;;;27.02;19.67;;;8.30;99.90;;;;;;4128603;28;20040;-75
2021/10/29 02:08:00;;;;;;;26.50;20.30;;;8.30;99.90;;;;;;4129343;28;20058;-75
2021/10/29 02:10:02;;;;;;;27.98;20.17;;;8.30;99.90;;;;;;4129408;28;20038;-76
2021/10/29 02:12:03;;;;;;;30.90;21.27;;;8.40;99.90;;;;;;4116099;28;20050;-75
2021/10/29 02:14:04;;;;;;;28.80;18.83;;;8.40;99.90;;;;;;4128100;28;20101;-75
2021/10/29 02:16:05;;;;;;;27.92;19.77;;;8.30;99.90;;;;;;4129510;28;20053;-75
2021/10/29 02:18:06;;;;;;;24.70;17.65;;;8.50;99.90;;;;;;4127098;28;20061;-75
2021/10/29 02:20:07;;;;;;;26.10;18.95;;;8.50;99.90;;;;;;4129384;28;20046;-75
2021/10/29 02:22:07;;;;;;;25.63;17.58;;;8.50;99.90;;;;;;4128653;28;20518;-75
2021/10/29 02:24:08;;;;;;;26.60;19.35;;;8.50;99.90;;;;;;4128133;28;20038;-75
2021/10/29 02:26:09;;;;;;;22.48;17.55;;;8.50;99.90;;;;;;4126507;28;20058;-75
2021/10/29 02:28:14;;;;;;;25.50;18.55;;;8.60;99.90;;;;;;4118555;28;20031;-75
2021/10/29 02:30:15;;;;;;;24.10;16.90;;;8.70;99.90;;;;;;4128260;28;20526;-75
2021/10/29 02:32:16;;;;;;;24.63;16.58;;;8.80;99.90;;;;;;4130241;28;20034;-75
2021/10/29 02:34:16;;;;;;;22.52;16.33;;;8.80;99.90;;;;;;4125332;28;20558;-75
2021/10/29 02:36:17;;;;;;;22.77;16.65;;;8.90;99.90;;;;;;4125292;28;20041;-76
2021/10/29 02:38:18;;;;;;;29.27;16.63;;;9.00;99.90;;;;;;4128153;28;20133;-76
2021/10/29 02:40:18;;;;;;;19.90;16.60;;;8.90;99.90;;;;;;4129212;28;20045;-75
2021/10/29 02:42:19;;;;;;;24.63;15.70;;;8.80;99.90;;;;;;4120072;28;20126;-76
2021/10/29 02:44:20;;;;;;;25.35;15.07;;;8.70;99.90;;;;;;4123722;28;20034;-75
2021/10/29 02:46:21;;;;;;;23.95;15.75;;;8.80;99.90;;;;;;4128176;28;20038;-76
2021/10/29 02:48:22;;;;;;;25.92;16.55;;;8.90;99.90;;;;;;4128156;28;20486;-75
2021/10/29 02:50:24;;;;;;;19.58;14.52;;;9.00;99.90;;;;;;4128847;28;20590;-75
2021/10/29 02:52:24;;;;;;;24.30;14.65;;;9.00;99.90;;;;;;4128420;28;20034;-75
2021/10/29 02:54:25;;;;;;;22.27;15.00;;;9.10;99.90;;;;;;4126470;28;20045;-75
2021/10/29 02:56:26;;;;;;;18.75;14.13;;;9.20;99.90;;;;;;4141089;28;20500;-75
2021/10/29 02:58:30;;;;;;;17.92;14.25;;;9.30;99.90;;;;;;4116812;28;20042;-75
2021/10/29 03:00:31;;;;;;;20.25;14.35;;;9.30;99.90;;;;;;4128574;28;20062;-76
2021/10/29 03:02:33;;;;;;;18.10;12.82;;;9.30;99.90;;;;;;4128423;28;20037;-75
2021/10/29 03:04:34;;;;;;;19.52;14.35;;;9.20;99.90;;;;;;4126488;28;20130;-75
2021/10/29 03:06:35;;;;;;;20.90;14.27;;;9.20;99.90;;;;;;4140607;28;20034;-75
2021/10/29 03:08:35;;;;;;;23.02;17.20;;;9.20;99.90;;;;;;4128779;28;20039;-75
2021/10/29 03:10:37;;;;;;;19.00;14.35;;;9.20;99.90;;;;;;4129010;28;20474;-75
2021/10/29 03:12:38;;;;;;;16.77;12.65;;;9.20;99.90;;;;;;4124788;28;20382;-75
2021/10/29 03:14:39;;;;;;;18.42;14.07;;;9.20;99.90;;;;;;4120223;28;20042;-74
2021/10/29 03:16:40;;;;;;;19.85;14.60;;;9.30;99.90;;;;;;4124596;28;20042;-75
2021/10/29 03:18:40;;;;;;;18.27;14.15;;;9.40;99.90;;;;;;4135944;28;20041;-75
2021/10/29 03:20:41;;;;;;;21.77;14.60;;;9.40;99.90;;;;;;4124228;28;20031;-75
2021/10/29 03:22:42;;;;;;;19.30;14.32;;;9.30;99.90;;;;;;4128382;28;20394;-75
2021/10/29 03:24:42;;;;;;;21.05;13.68;;;9.20;99.90;;;;;;4130621;28;20041;-75
2021/10/29 03:26:43;;;;;;;22.52;14.88;;;9.20;99.90;;;;;;4125592;28;20065;-75
2021/10/29 03:28:44;;;;;;;23.23;15.13;;;9.10;99.90;;;;;;4129471;28;20038;-75
2021/10/29 03:30:44;;;;;;;20.00;14.98;;;9.10;99.90;;;;;;4131131;28;20034;-73
2021/10/29 03:32:45;;;;;;;23.98;15.32;;;9.10;99.90;;;;;;4130654;28;20034;-74
2021/10/29 03:34:46;;;;;;;16.55;14.82;;;9.10;99.90;;;;;;4130951;28;20041;-75
2021/10/29 03:36:47;;;;;;;20.70;16.20;;;9.00;99.90;;;;;;4127397;28;20022;-75
2021/10/29 03:38:56;;;;;;;28.15;15.93;;;8.90;99.90;;;;;;4130800;28;20077;-74
2021/10/29 03:41:00;;;;;;;19.17;15.45;;;8.80;99.90;;;;;;4125465;28;20476;-74
2021/10/29 03:45:20;;;;;;;18.85;14.95;;;8.70;99.90;;;;;;4124184;28;20043;-75
2021/10/29 03:47:21;;;;;;;24.67;16.58;;;8.70;99.90;;;;;;4129274;28;20398;-75
2021/10/29 03:49:29;;;;;;;21.45;16.48;;;8.70;99.90;;;;;;4130160;28;20038;-75
2021/10/29 03:51:37;;;;;;;23.42;17.83;;;8.60;99.90;;;;;;4130209;28;20494;-75
2021/10/29 03:55:54;;;;;;;26.02;16.88;;;8.50;99.90;;;;;;4125148;28;20059;-75
2021/10/29 03:57:55;;;;;;;23.30;16.90;;;8.40;99.90;;;;;;4124958;28;20514;-75
2021/10/29 03:59:55;;;;;;;26.23;17.08;;;8.40;99.90;;;;;;4123838;28;20125;-75
2021/10/29 04:01:57;;;;;;;22.23;16.90;;;8.40;99.90;;;;;;4134110;28;20062;-75
2021/10/29 04:03:57;;;;;;;30.38;17.17;;;8.40;99.90;;;;;;4130546;28;20042;-75
2021/10/29 04:05:58;;;;;;;27.02;16.75;;;8.30;99.90;;;;;;4132152;28;20046;-75
2021/10/29 04:07:59;;;;;;;24.40;17.48;;;8.40;99.90;;;;;;4129902;28;20481;-73
2021/10/29 04:10:00;;;;;;;22.70;16.27;;;8.50;99.90;;;;;;4129463;28;20129;-74
2021/10/29 04:12:01;;;;;;;20.73;16.50;;;8.50;99.90;;;;;;4128309;28;20383;-74
2021/10/29 04:14:02;;;;;;;27.10;15.75;;;8.50;99.90;;;;;;4130791;28;20034;-75
2021/10/29 04:16:04;;;;;;;23.30;16.58;;;8.60;99.90;;;;;;4128739;28;20116;-75
2021/10/29 04:18:05;;;;;;;22.75;16.52;;;8.60;99.90;;;;;;4130141;28;20149;-75
2021/10/29 04:20:06;;;;;;;24.15;17.95;;;8.60;99.90;;;;;;4130456;28;20029;-75
2021/10/29 04:22:07;;;;;;;24.10;16.50;;;8.50;99.90;;;;;;4130121;28;20034;-76
2021/10/29 04:24:08;;;;;;;27.90;16.55;;;8.60;99.90;;;;;;4131009;28;20482;-75
2021/10/29 04:26:09;;;;;;;23.42;17.20;;;8.60;99.90;;;;;;4128235;28;20134;-75
2021/10/29 04:28:12;;;;;;;24.10;16.30;;;8.60;99.90;;;;;;4129630;28;20572;-75
2021/10/29 04:30:17;;;;;;;28.38;16.50;;;8.60;99.90;;;;;;4129553;28;20410;-75
2021/10/29 04:32:17;;;;;;;24.17;16.83;;;8.50;99.90;;;;;;4128661;28;20061;-75
2021/10/29 04:34:24;;;;;;;22.75;16.52;;;8.50;99.90;;;;;;4129009;28;20038;-75
2021/10/29 04:36:25;;;;;;;27.17;17.15;;;8.40;99.90;;;;;;4119158;28;20046;-75
2021/10/29 04:38:26;;;;;;;19.98;15.70;;;8.50;99.90;;;;;;4130125;28;20049;-74
2021/10/29 04:40:27;;;;;;;20.02;15.77;;;8.50;99.90;;;;;;4130226;28;20027;-75
2021/10/29 04:42:27;;;;;;;24.35;16.63;;;8.50;99.90;;;;;;4129411;28;20049;-75
2021/10/29 04:44:28;;;;;;;19.17;16.38;;;8.40;99.90;;;;;;4129360;28;20855;-75
2021/10/29 04:46:30;;;;;;;26.08;18.85;;;8.40;99.90;;;;;;4122841;28;20118;-75
2021/10/29 04:48:31;;;;;;;24.63;17.25;;;8.50;99.90;;;;;;4123206;28;20105;-75
2021/10/29 04:50:33;;;;;;;24.20;17.05;;;8.50;99.90;;;;;;4122604;28;20459;-75
2021/10/29 04:52:33;;;;;;;21.55;16.25;;;8.50;99.90;;;;;;4130471;28;20045;-75
2021/10/29 04:54:34;;;;;;;18.15;15.20;;;8.50;99.90;;;;;;4129537;28;20030;-75
2021/10/29 04:56:35;;;;;;;20.42;15.05;;;8.40;99.90;;;;;;4125417;28;20127;-75
2021/10/29 04:58:36;;;;;;;22.67;16.30;;;8.40;99.90;;;;;;4129112;28;20042;-75
2021/10/29 05:00:37;;;;;;;24.52;16.77;;;8.40;99.90;;;;;;4136460;28;20030;-75
2021/10/29 05:02:38;;;;;;;27.15;17.17;;;8.40;99.90;;;;;;4117302;28;20417;-74
2021/10/29 05:04:39;;;;;;;21.48;15.98;;;8.40;99.90;;;;;;4124540;28;20054;-75
2021/10/29 05:06:40;;;;;;;23.73;17.80;;;8.30;99.90;;;;;;4129374;28;20038;-75
2021/10/29 05:08:41;;;;;;;22.23;16.00;;;8.40;99.90;;;;;;4126510;28;20085;-75
2021/10/29 05:10:41;;;;;;;20.25;15.27;;;8.40;99.90;;;;;;4120208;28;20094;-75
2021/10/29 05:12:43;;;;;;;24.55;15.55;;;8.40;99.90;;;;;;4122760;28;20034;-73
2021/10/29 05:14:43;;;;;;;23.25;16.10;;;8.40;99.90;;;;;;4138963;28;20030;-73
2021/10/29 05:16:44;;;;;;;23.40;15.77;;;8.50;99.90;;;;;;4143105;28;20072;-74
2021/10/29 05:18:45;;;;;;;22.02;15.48;;;8.60;99.90;;;;;;4119784;28;20046;-75
2021/10/29 05:20:45;;;;;;;22.08;16.08;;;8.60;99.90;;;;;;4126195;28;20042;-74
2021/10/29 05:22:46;;;;;;;22.20;15.43;;;8.60;99.90;;;;;;4129058;28;20030;-74
2021/10/29 05:24:47;;;;;;;23.10;14.75;;;8.60;99.90;;;;;;4124770;28;20030;-74
2021/10/29 05:26:47;;;;;;;20.50;14.27;;;8.60;99.90;;;;;;4130102;28;20038;-74
2021/10/29 05:28:48;;;;;;;21.65;16.73;;;8.60;99.90;;;;;;4127973;28;20096;-74
2021/10/29 05:30:49;;;;;;;20.77;14.95;;;8.60;99.90;;;;;;4127649;28;20038;-74
2021/10/29 05:32:49;;;;;;;22.67;16.60;;;8.60;99.90;;;;;;4124132;28;20043;-74
2021/10/29 05:34:50;;;;;;;26.05;15.98;;;8.50;99.90;;;;;;4126512;28;20049;-75
2021/10/29 05:36:51;;;;;;;22.33;15.82;;;8.60;99.90;;;;;;4128336;28;20034;-74
2021/10/29 05:38:53;;;;;;;22.08;16.65;;;8.60;99.90;;;;;;4129556;28;20050;-75
2021/10/29 05:40:54;;;;;;;22.73;14.98;;;8.60;99.90;;;;;;4122658;28;20039;-74
2021/10/29 05:42:55;;;;;;;25.35;16.35;;;8.60;99.90;;;;;;4129369;28;20034;-75
2021/10/29 05:44:55;;;;;;;24.48;16.63;;;8.60;99.90;;;;;;4128007;28;20122;-74
2021/10/29 05:46:56;;;;;;;20.20;14.85;;;8.70;99.90;;;;;;4129684;28;20049;-74
2021/10/29 05:48:57;;;;;;;24.40;16.10;;;8.70;99.90;;;;;;4120576;28;20170;-74
2021/10/29 05:51:08;;;;;;;21.52;16.92;;;8.60;99.90;;;;;;4129413;28;20129;-75
2021/10/29 05:53:18;;;;;;;23.80;16.30;;;8.60;99.90;;;;;;4126677;28;20433;-76
2021/10/29 05:55:18;;;;;;;23.58;17.30;;;8.50;99.90;;;;;;4113967;28;20422;-75
2021/10/29 05:57:19;;;;;;;28.13;15.40;;;8.50;99.90;;;;;;4127064;28;20042;-75
2021/10/29 05:59:20;;;;;;;23.27;15.40;;;8.50;99.90;;;;;;4119895;28;20034;-74
2021/10/29 06:01:20;;;;;;;20.60;14.35;;;8.60;99.90;;;;;;4126995;28;20038;-74
2021/10/29 06:03:21;;;;;;;22.60;15.10;;;8.60;99.90;;;;;;4123500;28;20038;-75
2021/10/29 06:05:22;;;;;;;21.73;16.63;;;8.70;99.90;;;;;;4112518;28;20035;-75
2021/10/29 06:07:23;;;;;;;23.35;16.63;;;8.60;99.90;;;;;;4124588;28;20038;-74
2021/10/29 06:09:25;;;;;;;21.73;15.93;;;8.60;99.90;;;;;;4113757;28;20129;-75
2021/10/29 06:11:28;;;;;;;18.75;15.20;;;8.60;99.90;;;;;;4122198;28;20038;-74
2021/10/29 06:13:28;;;;;;;25.20;15.77;;;8.50;99.90;;;;;;4142345;28;20056;-74
2021/10/29 06:15:29;;;;;;;22.50;16.35;;;8.50;99.90;;;;;;4128924;28;20033;-74
2021/10/29 06:17:31;;;;;;;21.45;16.17;;;8.40;99.90;;;;;;4115497;28;20518;-74
2021/10/29 06:19:32;;;;;;;23.25;17.02;;;8.40;99.90;;;;;;4129517;28;20028;-74
2021/10/29 06:21:42;;;;;;;28.60;16.77;;;8.40;99.90;;;;;;4127891;28;20073;-74
2021/10/29 06:25:49;;;;;;;27.55;16.73;;;8.40;99.90;;;;;;4120717;28;20026;-75
2021/10/29 06:30:09;;;;;;;21.98;15.45;;;8.30;99.90;;;;;;4124383;28;20085;-74
2021/10/29 06:32:10;;;;;;;19.88;15.98;;;;;;;;;;4117674;28;20035;-75
2021/10/29 06:34:12;;;;;;;23.25;16.83;;;8.30;99.90;;;;;;4120331;28;20030;-75
2021/10/29 06:36:14;;;;;;;21.38;16.38;;;8.20;99.90;;;;;;4115711;28;20023;-75
2021/10/29 06:38:15;;;;;;;22.75;16.17;;;8.30;99.90;;;;;;4122821;28;20090;-75
2021/10/29 06:40:16;;;;;;;22.80;16.42;;;8.30;99.90;;;;;;4127545;28;20093;-75
2021/10/29 06:42:27;;;;;;;21.77;16.45;;;8.20;99.90;;;;;;4128002;28;20089;-75
2021/10/29 06:44:34;;;;;;;32.33;18.27;;;8.20;99.90;;;;;;4128094;28;20026;-75
2021/10/29 07:00:18;;;;;;;23.70;17.05;;;8.30;99.90;;;;;;4120346;28;20037;-73
2021/10/29 07:41:28;;;;;;;23.05;15.18;;;9.30;99.90;;;;;;4131307;28;20602;-74
2021/10/29 07:43:39;;;;;;;27.45;15.73;;;9.40;99.90;;;;;;4130376;28;20034;-74
2021/10/29 07:45:41;;;;;;;21.25;15.45;;;9.50;99.90;;;;;;4125848;28;20039;-75
2021/10/29 07:47:43;;;;;;;20.17;15.20;;;9.60;99.90;;;;;;4126858;28;20042;-74
2021/10/29 07:49:43;;;;;;;17.98;15.80;;;9.60;99.90;;;;;;4131510;28;20351;-74
2021/10/29 07:51:44;;;;;;;22.90;14.57;;;9.70;99.90;;;;;;4125815;28;20042;-74
2021/10/29 07:53:45;;;;;;;17.90;14.48;;;9.80;99.90;;;;;;4124357;28;20086;-75
2021/10/29 07:55:46;;;;;;;23.27;15.60;;;9.80;99.90;;;;;;4124667;28;20114;-74
2021/10/29 07:57:47;;;;;;;23.73;15.10;;;9.80;99.90;;;;;;4129867;28;20051;-75
2021/10/29 07:59:50;;;;;;;21.20;15.65;;;9.80;99.90;;;;;;4130363;28;20034;-73
2021/10/29 08:01:51;;;;;;;23.10;15.48;;;9.90;99.90;;;;;;4128571;28;20100;-73
2021/10/29 08:03:51;;;;;;;28.90;17.35;;;10.00;99.90;;;;;;4129729;28;20035;-73
2021/10/29 08:05:52;;;;;;;21.45;14.07;;;10.00;99.90;;;;;;4131194;28;20527;-74
2021/10/29 08:07:54;;;;;;;18.23;13.70;;;10.10;99.90;;;;;;4129423;28;20113;-73
2021/10/29 08:09:55;;;;;;;23.10;14.88;;;10.20;99.90;;;;;;4129280;28;20027;-74
2021/10/29 08:11:56;;;;;;;16.75;13.55;;;10.30;99.90;;;;;;4131416;28;20085;-74
2021/10/29 08:13:57;;;;;;;19.38;14.88;;;10.40;99.90;;;;;;4129907;28;20038;-74
2021/10/29 08:15:59;;;;;;;17.20;14.48;;;10.40;99.90;;;;;;4129082;28;20121;-75
2021/10/29 08:18:00;;;;;;;17.10;12.70;;;10.40;99.90;;;;;;4129936;28;20039;-74
2021/10/29 08:20:06;;;;;;;18.00;13.05;;;10.50;99.90;;;;;;4128237;28;20117;-74
2021/10/29 08:22:06;;;;;;;23.48;14.65;;;10.60;99.90;;;;;;4130174;28;20034;-76
2021/10/29 08:24:10;;;;;;;18.13;13.63;;;10.70;99.90;;;;;;4131097;28;20142;-74
2021/10/29 08:26:13;;;;;;;20.13;14.18;;;10.70;99.90;;;;;;4129213;28;20022;-75
2021/10/29 08:28:15;;;;;;;20.98;14.50;;;10.80;99.90;;;;;;4129242;28;20049;-74
2021/10/29 08:30:16;;;;;;;16.98;12.88;;;10.90;99.90;;;;;;4119333;28;20058;-75
2021/10/29 08:32:17;;;;;;;18.70;13.82;;;11.00;99.90;;;;;;4127343;28;20110;-74
2021/10/29 08:34:22;;;;;;;19.60;14.05;;;11.00;99.90;;;;;;4121368;28;20042;-74
2021/10/29 08:36:22;;;;;;;18.27;12.77;;;11.10;99.90;;;;;;4130650;28;20471;-74
2021/10/29 08:38:24;;;;;;;16.25;13.07;;;11.10;99.90;;;;;;4130480;28;20034;-75
2021/10/29 08:40:25;;;;;;;18.35;13.60;;;11.20;99.90;;;;;;4130764;28;20041;-74
2021/10/29 08:42:27;;;;;;;17.63;13.05;;;11.30;99.90;;;;;;4130030;28;20050;-74
2021/10/29 08:44:32;;;;;;;16.58;14.00;;;11.40;99.90;;;;;;4127153;28;20031;-74
2021/10/29 08:46:33;;;;;;;16.48;12.30;;;11.50;99.90;;;;;;4125404;28;20133;-74
2021/10/29 08:48:37;;;;;;;17.67;12.45;;;11.50;99.90;;;;;;4120586;28;20026;-74
2021/10/29 08:50:37;;;;;;;18.55;12.93;;;11.50;99.90;;;;;;4139296;28;20120;-74
2021/10/29 08:52:40;;;;;;;23.42;13.85;;;11.60;99.90;;;;;;4128155;28;20461;-74
2021/10/29 08:54:41;;;;;;;17.90;13.25;;;11.70;99.90;;;;;;4129525;28;20030;-74
2021/10/29 08:56:42;;;;;;;15.10;11.40;;;11.80;99.90;;;;;;4128591;28;20549;-74
2021/10/29 08:59:03;;;;;;;16.63;12.27;;;11.80;99.90;;;;;;4127765;28;20034;-73
2021/10/29 09:01:09;;;;;;;15.57;12.20;;;11.90;99.90;;;;;;4131944;28;20485;-74
2021/10/29 09:03:40;;;;;;;20.80;13.13;;;12.00;99.90;;;;;;4129027;28;20058;-74
2021/10/29 09:05:58;;;;;;;14.85;12.05;;;12.10;99.90;;;;;;4129889;28;20042;-74
2021/10/29 09:08:28;;;;;;;16.63;12.45;;;12.20;99.90;;;;;;4127599;28;20501;-74
2021/10/29 09:10:42;;;;;;;16.98;12.32;;;12.30;99.90;;;;;;4127066;28;20038;-74
2021/10/29 09:32:22;;;;;;;13.50;10.07;;;13.50;99.90;;;;;;4120042;28;20033;-74
2021/10/29 09:34:23;;;;;;;16.55;10.70;;;13.60;99.90;;;;;;4143772;28;20486;-74
2021/10/29 09:36:38;;;;;;;9.68;8.65;;;13.80;99.90;;;;;;4128671;28;20031;-74
2021/10/29 09:38:53;;;;;;;15.63;10.65;;;14.20;99.90;;;;;;4129033;28;20027;-74
2021/10/29 09:41:03;;;;;;;12.82;9.68;;;14.50;99.90;;;;;;4123109;28;20038;-75
2021/10/29 09:43:10;;;;;;;18.33;10.98;;;14.70;99.90;;;;;;4124906;28;20033;-74
2021/10/29 09:45:14;;;;;;;13.57;9.60;;;14.90;99.90;;;;;;4129021;28;20057;-74
2021/10/29 09:47:20;;;;;;;19.98;11.40;;;15.20;99.90;;;;;;4137975;28;20030;-74
2021/10/29 09:49:52;;;;;;;13.90;9.32;;;15.30;99.90;;;;;;4127476;28;20380;-74
2021/10/29 09:52:09;;;;;;;14.55;9.40;;;15.50;99.90;;;;;;4127611;28;20047;-75
2021/10/29 09:54:17;;;;;;;14.38;10.48;;;15.70;99.90;;;;;;4120730;28;20034;-75
2021/10/29 09:58:22;;;;;;;11.90;9.98;;;16.20;99.90;;;;;;4128619;28;20220;-74
2021/10/29 10:00:23;;;;;;;15.25;9.75;;;16.20;99.90;;;;;;4130278;28;20038;-74
2021/10/29 10:02:27;;;;;;;14.43;11.48;;;16.20;99.90;;;;;;4129723;28;20500;-74
2021/10/29 10:04:29;;;;;;;12.38;9.40;;;16.40;99.90;;;;;;4128916;28;20054;-74
2021/10/29 10:06:39;;;;;;;13.82;8.93;;;16.50;99.90;;;;;;4127933;28;20057;-74
2021/10/29 10:08:41;;;;;;;11.98;9.38;;;16.80;99.90;;;;;;4126268;28;20034;-73
2021/10/29 10:10:46;;;;;;;13.45;9.63;;;16.80;99.90;;;;;;4130189;28;20514;-73
2021/10/29 10:12:49;;;;;;;17.50;8.93;;;16.90;99.90;;;;;;4129024;28;20031;-74
2021/10/29 10:14:53;;;;;;;12.57;8.40;;;16.90;99.90;;;;;;4129516;28;20554;-74
2021/10/29 10:16:54;;;;;;;13.50;9.02;;;17.00;99.90;;;;;;4128943;28;20039;-74
2021/10/29 10:18:56;;;;;;;12.32;8.23;;;16.90;99.90;;;;;;4129546;28;20073;-73
2021/10/29 10:21:00;;;;;;;9.98;8.52;;;17.00;99.90;;;;;;4131156;28;20034;-73
2021/10/29 10:23:05;;;;;;;11.85;8.98;;;17.10;99.90;;;;;;4123630;28;20130;-73
2021/10/29 10:25:18;;;;;;;12.43;8.57;;;17.40;99.90;;;;;;4124048;28;20399;-73
2021/10/29 10:27:33;;;;;;;10.57;7.88;;;17.70;99.90;;;;;;4123387;28;20107;-74
2021/10/29 10:44:48;;;;;;;12.25;8.00;;;17.90;99.90;;;;;;4132984;28;20038;-74
2021/10/29 10:46:36;;;;;;;11.52;7.38;;;17.20;99.90;;;;;;4123539;28;20027;-74
2021/10/29 10:48:40;;;;;;;10.10;8.02;;;16.80;99.90;;;;;;4127072;28;20118;-74
2021/10/29 10:50:47;;;;;;;9.10;7.40;;;16.60;99.90;;;;;;4128741;28;20106;-74
2021/10/29 10:53:04;;;;;;;11.70;8.95;;;16.50;99.90;;;;;;4130247;28;20043;-74
2021/10/29 10:55:10;;;;;;;14.65;7.80;;;16.40;99.90;;;;;;4130144;28;20130;-74
2021/10/29 10:59:45;;;;;;;14.45;8.48;;;16.00;99.90;;;;;;4129945;28;20510;-73
2021/10/29 11:11:30;;;;;;;14.48;9.68;;;16.10;99.90;;;;;;4131866;28;20329;-74
2021/10/29 11:13:42;;;;;;;11.73;8.73;;;16.20;99.90;;;;;;4132367;28;20026;-74
2021/10/29 11:15:56;;;;;;;10.95;8.90;;;16.30;99.90;;;;;;4147357;28;20037;-73
2021/10/29 11:17:59;;;;;;;10.93;9.48;;;16.50;99.90;;;;;;4130379;28;20065;-74
2021/10/29 11:20:00;;;;;;;12.32;8.80;;;16.60;99.90;;;;;;4131007;28;20034;-74
2021/10/29 11:22:01;;;;;;;10.95;8.63;;;16.70;99.90;;;;;;4128536;28;20184;-74
2021/10/29 11:24:06;;;;;;;19.42;8.80;;;16.60;99.90;;;;;;4130332;28;20370;-75
2021/10/29 11:26:20;;;;;;;12.38;7.82;;;16.50;99.90;;;;;;4132968;28;20030;-74
2021/10/29 11:28:25;;;;;;;10.23;8.95;;;16.60;99.90;;;;;;4124063;28;20038;-73
2021/10/29 11:30:39;;;;;;;12.23;8.32;;;16.70;99.90;;;;;;4129939;28;20031;-74
2021/10/29 11:32:40;;;;;;;15.27;9.00;;;17.20;99.90;;;;;;4132158;28;20022;-74
2021/10/29 11:34:41;;;;;;;10.32;7.80;;;17.90;99.90;;;;;;4128499;28;20138;-74
2021/10/29 11:36:52;;;;;;;12.48;8.27;;;18.40;99.90;;;;;;4132445;28;20498;-74
2021/10/29 11:38:55;;;;;;;8.80;7.32;;;18.70;99.90;;;;;;4130201;28;20470;-74
2021/10/29 11:40:56;;;;;;;11.93;7.90;;;19.10;99.90;;;;;;4131901;28;20378;-73
2021/10/29 11:42:57;;;;;;;11.05;7.60;;;19.30;99.90;;;;;;4130832;28;20062;-74
2021/10/29 11:45:02;;;;;;;9.93;7.57;;;19.40;99.90;;;;;;4130844;28;20042;-75
2021/10/29 11:47:06;;;;;;;10.52;8.38;;;19.70;99.90;;;;;;4130821;28;20037;-73
2021/10/29 11:49:10;;;;;;;14.95;8.38;;;19.70;99.90;;;;;;4130908;28;20117;-74
2021/10/29 11:51:13;;;;;;;10.65;7.50;;;19.70;99.90;;;;;;4130177;28;20188;-74
2021/10/29 11:53:16;;;;;;;12.85;8.02;;;19.70;99.90;;;;;;4129592;28;20053;-74
2021/10/29 11:55:23;;;;;;;11.23;7.40;;;19.50;99.90;;;;;;4130609;28;20022;-74
2021/10/29 12:07:13;;;;;;;11.38;6.60;;;20.10;99.90;;;;;;4129016;28;20034;-74
2021/10/29 12:08:37;;;;;;;9.80;7.13;;;19.80;99.90;;;;;;4127019;28;20031;-74
2021/10/29 12:10:43;;;;;;;13.82;6.88;;;19.50;99.90;;;;;;4121134;28;20117;-74
2021/10/29 12:12:47;;;;;;;13.43;7.55;;;19.40;99.90;;;;;;4140669;28;20038;-74
2021/10/29 12:14:49;;;;;;;;;;;19.40;99.90;;;;;;4130558;28;20027;-74
2021/10/29 12:16:50;;;;;;;9.80;7.93;;;19.70;99.90;;;;;;4130540;28;19913;-74
2021/10/29 12:18:59;;;;;;;10.93;7.57;;;19.70;99.90;;;;;;4125773;28;20027;-74
2021/10/29 12:21:00;;;;;;;15.45;7.70;;;19.70;99.90;;;;;;4132486;28;20126;-74
2021/10/29 12:23:08;;;;;;;10.13;7.55;;;19.90;99.90;;;;;;4126379;28;20030;-75
2021/10/29 12:25:54;;;;;;;10.40;8.05;;;19.60;99.90;;;;;;4127917;28;20041;-74
2021/10/29 12:30:06;;;;;;;12.40;8.35;;;19.50;99.90;;;;;;4129777;28;20458;-74
2021/10/29 12:32:45;;;;;;;10.02;8.00;;;19.40;99.90;;;;;;4129608;28;20478;-74